CYIK

Ivujivik Airport

Ivujivik, Quebec, Canada
METAR CYIK 211800Z 25007KT 7SM -DZ VCFG BKN002 OVC004 01/01 A2948 RMK ST5ST3 VIS N 3 FG SLP988
Observed Flight Rules
Jun-21 @ 18:00 UTC (14 minutes ago) Instrument Flight Rules
Wind Visibility Clouds Conditions
250° at 7 knots 7 miles
  • Broken at 200' AGL
  • Overcast at 400' AGL
  • Light Drizzle
  • Area Fog
Temperatures Readings
Current 1°C / 34°F
Dewpoint 1°C / 34°F
Humidity 100%
Altimeter 29.48" Hg
Pressure 998.8 hPa
Elevation 42
METAR CYIK 211800Z 25007KT 7SM -DZ VCFG BKN002 OVC004 01/01 A2948 RMK ST5ST3 VIS N 3 FG SLP988
Observed Flight Rules
Jun-21 @ 18:00 UTC
(14 minutes ago)
LIFR
Wind Visibility
250° at 7 knots 7 miles
Clouds
  • Broken at 200' AGL
  • Overcast at 400' AGL
Conditions
  • Light Drizzle
  • Area Fog
Temperature Dewpoint
1°C / 34°F 1°C / 34°F
Humidity Altimeter Pressure
100% 29.48" Hg 998.8 hPa